createdAt,value
2023-08-12T00:00:12.602Z,4.30
2023-08-12T00:03:15.872Z,4.30
2023-08-12T00:06:19.039Z,3.70
2023-08-12T00:09:23.565Z,3.90
2023-08-12T00:12:26.631Z,3.88
2023-08-12T00:15:29.688Z,4.00
2023-08-12T00:18:37.735Z,3.80
2023-08-12T00:21:40.811Z,3.90
2023-08-12T00:24:45.655Z,3.60
2023-08-12T00:27:48.768Z,3.75
2023-08-12T00:30:52.114Z,3.60
2023-08-12T00:33:55.212Z,3.35
2023-08-12T00:36:58.406Z,3.47
2023-08-12T00:40:03.366Z,3.15
2023-08-12T00:43:06.593Z,3.60
2023-08-12T00:46:09.700Z,3.50
2023-08-12T00:49:13.840Z,3.40
2023-08-12T00:52:18.698Z,3.35
2023-08-12T00:55:23.783Z,3.30
2023-08-12T00:58:27.068Z,3.35
2023-08-12T01:01:30.277Z,3.30
2023-08-12T01:04:33.515Z,3.50
2023-08-12T01:07:37.026Z,3.72
2023-08-12T01:10:47.402Z,3.00
2023-08-12T01:13:59.789Z,3.07
2023-08-12T01:17:06.285Z,3.00
2023-08-12T01:20:13.892Z,3.42
2023-08-12T01:23:18.626Z,2.92
2023-08-12T01:26:21.679Z,3.40
2023-08-12T01:29:25.230Z,3.00
2023-08-12T01:32:34.910Z,2.95
2023-08-12T01:35:42.334Z,3.20
2023-08-12T01:38:48.219Z,3.05
2023-08-12T01:41:52.809Z,2.90
2023-08-12T01:44:56.510Z,3.10
2023-08-12T01:47:59.937Z,3.00
2023-08-12T01:51:04.189Z,3.47
2023-08-12T01:54:08.807Z,3.30
2023-08-12T01:57:12.494Z,2.80
2023-08-12T02:00:16.106Z,3.17
2023-08-12T02:03:19.261Z,3.20
2023-08-12T02:06:22.445Z,3.03
2023-08-12T02:09:26.958Z,3.00
2023-08-12T02:12:30.023Z,3.03
2023-08-12T02:15:33.056Z,3.03
2023-08-12T02:18:36.570Z,2.97
2023-08-12T02:21:39.646Z,2.50
2023-08-12T02:24:44.052Z,3.00
2023-08-12T02:27:47.132Z,3.30
2023-08-12T02:30:50.196Z,2.90
2023-08-12T02:33:53.297Z,3.30
2023-08-12T02:36:56.403Z,2.83
2023-08-12T02:40:01.302Z,3.00
2023-08-12T02:43:04.539Z,2.90
2023-08-12T02:46:08.313Z,3.03
2023-08-12T02:49:11.408Z,3.00
2023-08-12T02:52:14.493Z,2.97
2023-08-12T02:55:19.232Z,3.10
2023-08-12T02:58:22.463Z,3.20
2023-08-12T03:01:26.109Z,3.20
2023-08-12T03:04:29.236Z,3.40
2023-08-12T03:07:32.367Z,3.03
2023-08-12T03:10:38.787Z,3.50
2023-08-12T03:13:41.960Z,4.63
2023-08-12T03:16:45.077Z,3.80
2023-08-12T03:19:48.120Z,4.18
2023-08-12T03:22:51.229Z,3.80
2023-08-12T03:25:55.706Z,4.82
2023-08-12T03:28:58.740Z,4.50
2023-08-12T03:32:01.826Z,4.32
2023-08-12T03:35:05.234Z,5.70
2023-08-12T03:38:08.300Z,5.47
2023-08-12T03:41:12.857Z,6.00
2023-08-12T03:44:15.978Z,5.20
2023-08-12T03:47:23.080Z,4.30
2023-08-12T03:50:26.204Z,3.90
2023-08-12T03:53:29.261Z,4.50
2023-08-12T03:56:33.841Z,4.93
2023-08-12T03:59:36.897Z,4.00
2023-08-12T04:02:39.970Z,4.40
2023-08-12T04:05:50.865Z,5.20
2023-08-12T04:08:53.941Z,4.15
2023-08-12T04:11:58.604Z,3.80
2023-08-12T04:15:04.463Z,4.43
2023-08-12T04:18:08.349Z,5.50
2023-08-12T04:21:12.265Z,4.22
2023-08-12T04:24:15.484Z,5.05
2023-08-12T04:27:20.196Z,5.10
2023-08-12T04:30:23.540Z,4.23
2023-08-12T04:33:26.770Z,3.97
2023-08-12T04:36:29.904Z,4.00
2023-08-12T04:39:33.532Z,5.60
2023-08-12T04:42:38.068Z,5.70
2023-08-12T04:45:41.287Z,16.55
2023-08-12T04:48:44.517Z,26.48
2023-08-12T04:51:47.587Z,19.93
2023-08-12T04:54:50.702Z,15.53
2023-08-12T04:57:55.228Z,10.70
2023-08-12T05:00:59.425Z,13.90
2023-08-12T05:04:02.486Z,10.70
2023-08-12T05:07:05.600Z,8.10
2023-08-12T05:10:09.531Z,10.20
2023-08-12T05:13:13.922Z,23.08
2023-08-12T05:16:17.115Z,17.93
2023-08-12T05:19:20.180Z,26.02
2023-08-12T05:22:23.209Z,20.05
2023-08-12T05:25:26.442Z,10.13
2023-08-12T05:28:30.958Z,9.73
2023-08-12T05:31:34.088Z,10.40
2023-08-12T05:34:37.190Z,7.80
2023-08-12T05:37:40.213Z,7.17
2023-08-12T05:40:43.410Z,7.33
2023-08-12T05:43:47.865Z,6.15
2023-08-12T05:46:50.954Z,8.10
2023-08-12T05:49:54.050Z,6.97
2023-08-12T05:52:57.236Z,6.65
2023-08-12T05:56:00.508Z,6.80
2023-08-12T05:59:05.103Z,9.70
2023-08-12T06:02:08.184Z,6.60
2023-08-12T06:05:11.627Z,7.10
2023-08-12T06:08:14.927Z,5.90
2023-08-12T06:11:17.990Z,5.30
2023-08-12T06:14:22.722Z,5.13
2023-08-12T06:17:25.915Z,5.07
2023-08-12T06:20:29.003Z,4.60
2023-08-12T06:23:32.347Z,4.20
2023-08-12T06:26:35.594Z,3.88
2023-08-12T06:29:40.137Z,4.03
2023-08-12T06:32:43.376Z,4.10
2023-08-12T06:35:49.889Z,3.77
2023-08-12T06:38:54.204Z,3.83
2023-08-12T06:41:57.288Z,3.80
2023-08-12T06:45:05.263Z,3.20
2023-08-12T06:48:08.853Z,3.30
2023-08-12T06:51:12.482Z,3.23
2023-08-12T06:54:15.557Z,3.45
2023-08-12T06:57:18.684Z,3.08
2023-08-12T07:00:23.260Z,3.10
2023-08-12T07:03:26.939Z,3.28
2023-08-12T07:06:30.074Z,3.30
2023-08-12T07:09:33.166Z,3.10
2023-08-12T07:12:36.351Z,3.50
2023-08-12T07:15:40.882Z,3.40
2023-08-12T07:18:43.957Z,3.30
2023-08-12T07:21:47.049Z,3.13
2023-08-12T07:24:50.120Z,3.05
2023-08-12T07:27:53.238Z,3.00
2023-08-12T07:30:57.685Z,3.10
2023-08-12T07:34:00.827Z,3.10
2023-08-12T07:37:03.875Z,3.05
2023-08-12T07:40:07.852Z,3.20
2023-08-12T07:43:10.902Z,3.50
2023-08-12T07:46:15.851Z,3.10
2023-08-12T07:49:19.184Z,3.00
2023-08-12T07:52:22.276Z,3.00
2023-08-12T07:55:27.280Z,2.80
2023-08-12T07:58:30.543Z,3.40
2023-08-12T08:01:37.951Z,2.90
2023-08-12T08:04:42.259Z,3.40
2023-08-12T08:07:45.385Z,3.20
2023-08-12T08:10:48.432Z,3.27
2023-08-12T08:13:51.536Z,3.90
2023-08-12T08:16:56.337Z,3.60
2023-08-12T08:19:59.565Z,3.50
2023-08-12T08:23:02.587Z,3.80
2023-08-12T08:26:05.762Z,3.20
2023-08-12T08:29:10.039Z,3.30
2023-08-12T08:32:14.718Z,4.30
2023-08-12T08:35:17.976Z,4.57
2023-08-12T08:38:21.247Z,4.30
2023-08-12T08:41:24.577Z,3.65
2023-08-12T08:44:31.669Z,3.70
2023-08-12T08:47:36.361Z,4.00
2023-08-12T08:50:39.825Z,3.60
2023-08-12T08:53:45.470Z,3.80
2023-08-12T08:56:55.107Z,3.70
2023-08-12T09:00:16.311Z,3.67
2023-08-12T09:03:22.690Z,3.67
2023-08-12T09:06:28.823Z,3.70
2023-08-12T09:09:32.643Z,3.53
2023-08-12T09:12:37.661Z,4.00
2023-08-12T09:15:40.810Z,4.00
2023-08-12T09:18:46.418Z,3.60
2023-08-12T09:21:54.826Z,3.47
2023-08-12T09:24:59.443Z,4.40
2023-08-12T09:28:02.876Z,4.90
2023-08-12T09:31:06.012Z,4.10
2023-08-12T09:34:10.510Z,3.70
2023-08-12T09:37:15.216Z,3.70
2023-08-12T09:40:18.661Z,3.95
2023-08-12T09:43:26.052Z,3.95
2023-08-12T09:46:29.785Z,3.83
2023-08-12T09:49:34.832Z,3.80
2023-08-12T09:52:38.141Z,3.50
2023-08-12T09:55:42.847Z,3.33
2023-08-12T09:58:49.861Z,3.30
2023-08-12T10:01:54.884Z,3.07
2023-08-12T10:05:00.948Z,3.10
2023-08-12T10:08:06.129Z,2.97
2023-08-12T10:11:13.301Z,2.93
2023-08-12T10:14:17.592Z,3.30
2023-08-12T10:17:33.142Z,3.10
2023-08-12T10:20:46.534Z,3.10
2023-08-12T10:23:49.713Z,3.00
2023-08-12T10:26:54.008Z,2.90
2023-08-12T10:29:58.796Z,2.90
2023-08-12T10:33:02.538Z,3.13
2023-08-12T10:36:08.308Z,3.13
2023-08-12T10:39:11.996Z,2.70
2023-08-12T10:42:15.341Z,3.00
2023-08-12T10:45:20.013Z,3.00
2023-08-12T10:48:26.157Z,3.30
2023-08-12T10:51:48.912Z,3.40
2023-08-12T10:54:51.921Z,3.40
2023-08-12T10:57:57.147Z,3.20
2023-08-12T11:01:00.707Z,3.40
2023-08-12T11:04:03.930Z,3.30
2023-08-12T11:07:18.665Z,3.22
2023-08-12T11:10:26.272Z,3.30
2023-08-12T11:13:30.165Z,3.20
2023-08-12T11:16:37.945Z,2.75
2023-08-12T11:19:41.177Z,2.70
2023-08-12T11:22:46.738Z,3.20
2023-08-12T11:25:51.357Z,3.00
2023-08-12T11:28:55.846Z,2.70
2023-08-12T11:31:59.580Z,3.10
2023-08-12T11:35:02.944Z,3.60
2023-08-12T11:38:08.741Z,3.80
2023-08-12T11:41:12.320Z,3.43
2023-08-12T11:44:18.151Z,3.28
2023-08-12T11:47:21.265Z,3.70
2023-08-12T11:50:26.139Z,3.85
2023-08-12T11:53:30.816Z,3.50
2023-08-12T11:56:34.443Z,3.60
2023-08-12T11:59:38.831Z,3.23
2023-08-12T12:02:44.078Z,3.45
2023-08-12T12:05:49.952Z,3.10
2023-08-12T12:08:55.479Z,2.83
2023-08-12T12:11:58.570Z,2.90
2023-08-12T12:15:01.694Z,2.50
2023-08-12T12:18:05.114Z,2.70
2023-08-12T12:21:08.213Z,2.70
2023-08-12T12:24:12.707Z,2.80
2023-08-12T12:27:16.529Z,2.60
2023-08-12T12:30:20.466Z,2.30
2023-08-12T12:33:23.879Z,2.10
2023-08-12T12:36:27.259Z,2.00
2023-08-12T12:39:32.589Z,2.00
2023-08-12T12:42:35.801Z,2.00
2023-08-12T12:45:39.007Z,2.40
2023-08-12T12:48:42.097Z,2.73
2023-08-12T12:51:45.178Z,2.50
2023-08-12T12:54:49.645Z,2.30
2023-08-12T12:57:52.772Z,2.80
2023-08-12T13:00:55.938Z,2.55
2023-08-12T13:03:59.018Z,2.55
2023-08-12T13:07:02.483Z,2.55
2023-08-12T13:10:08.432Z,2.43
2023-08-12T13:13:11.759Z,2.80
2023-08-12T13:16:15.061Z,2.70
2023-08-12T13:19:18.163Z,3.10
2023-08-12T13:22:21.329Z,3.22
2023-08-12T13:25:25.801Z,3.10
2023-08-12T13:28:28.984Z,3.47
2023-08-12T13:31:32.127Z,3.40
2023-08-12T13:34:35.216Z,3.30
2023-08-12T13:37:38.378Z,3.15
2023-08-12T13:40:42.902Z,3.20
2023-08-12T13:43:46.031Z,2.90
2023-08-12T13:46:49.121Z,3.40
2023-08-12T13:49:52.572Z,3.13
2023-08-12T13:52:55.611Z,3.25
2023-08-12T13:56:00.087Z,3.05
2023-08-12T13:59:03.127Z,3.30
2023-08-12T14:02:06.329Z,3.70
2023-08-12T14:05:11.351Z,3.80
2023-08-12T14:08:14.419Z,4.40
2023-08-12T14:11:44.283Z,4.93
2023-08-12T14:14:47.421Z,5.20
2023-08-12T14:17:50.627Z,5.25
2023-08-12T14:20:53.775Z,4.32
2023-08-12T14:24:02.796Z,3.10
2023-08-12T14:27:07.710Z,3.17
2023-08-12T14:30:12.281Z,2.80
2023-08-12T14:33:15.346Z,2.50
2023-08-12T14:36:18.454Z,3.07
2023-08-12T14:39:22.993Z,3.00
2023-08-12T14:42:27.702Z,2.80
2023-08-12T14:45:31.125Z,3.10
2023-08-12T14:48:34.675Z,4.43
2023-08-12T15:00:00.515Z,4.10
2023-08-12T15:03:04.592Z,3.60
2023-08-12T15:06:08.190Z,3.80
2023-08-12T15:09:11.663Z,4.13
2023-08-12T15:12:14.737Z,3.90
2023-08-12T15:15:19.704Z,3.47
2023-08-12T15:18:22.866Z,3.20
2023-08-12T15:21:25.954Z,2.83
2023-08-12T15:24:29.059Z,3.30
2023-08-12T15:27:32.714Z,3.67
2023-08-12T15:30:37.554Z,3.30
2023-08-12T15:33:40.762Z,3.47
2023-08-12T15:36:44.118Z,3.40
2023-08-12T15:39:47.824Z,3.40
2023-08-12T15:42:51.232Z,3.70
2023-08-12T15:45:55.800Z,4.40
2023-08-12T15:48:58.897Z,6.30
2023-08-12T15:52:03.582Z,8.90
2023-08-12T15:55:07.569Z,7.60
2023-08-12T15:58:10.923Z,8.45
2023-08-12T16:01:15.462Z,8.40
2023-08-12T16:04:19.319Z,9.07
2023-08-12T16:07:22.404Z,8.30
2023-08-12T16:10:25.673Z,7.97
2023-08-12T16:13:28.795Z,7.60
2023-08-12T16:16:34.015Z,7.20
2023-08-12T16:19:37.755Z,7.15
2023-08-12T16:22:40.960Z,7.50
2023-08-12T16:25:44.313Z,8.23
2023-08-12T16:28:47.602Z,8.60
2023-08-12T16:31:52.294Z,8.35
2023-08-12T16:34:55.409Z,8.25
2023-08-12T16:37:58.681Z,7.88
2023-08-12T16:41:01.853Z,7.50
2023-08-12T16:44:05.232Z,7.22
2023-08-12T16:47:09.763Z,7.20
2023-08-12T16:50:18.965Z,6.25
2023-08-12T16:53:22.152Z,5.18
2023-08-12T16:56:25.252Z,5.57
2023-08-12T16:59:28.432Z,5.90
2023-08-12T17:02:33.207Z,5.60
2023-08-12T17:05:36.374Z,5.00
2023-08-12T17:08:39.703Z,5.50
2023-08-12T17:11:42.834Z,5.43
2023-08-12T17:14:45.987Z,6.50
2023-08-12T17:17:50.646Z,7.65
2023-08-12T17:20:54.007Z,7.60
2023-08-12T17:23:57.099Z,6.30
2023-08-12T17:27:00.161Z,6.50
2023-08-12T17:30:03.313Z,6.20
2023-08-12T17:33:07.937Z,13.13
2023-08-12T17:36:11.469Z,18.35
2023-08-12T17:39:14.638Z,13.70
2023-08-12T17:42:19.087Z,9.73
2023-08-12T17:45:22.475Z,9.35
2023-08-12T17:48:26.978Z,9.00
2023-08-12T17:51:30.122Z,9.00
2023-08-12T17:54:33.293Z,7.73
2023-08-12T17:57:36.378Z,6.60
2023-08-12T18:00:39.490Z,5.90
2023-08-12T18:03:44.164Z,5.10
2023-08-12T18:06:47.265Z,4.37
2023-08-12T18:09:50.451Z,4.67
2023-08-12T18:12:53.504Z,5.50
2023-08-12T18:15:56.676Z,5.60
2023-08-12T18:19:01.350Z,7.10
2023-08-12T18:22:04.804Z,9.80
2023-08-12T18:25:08.061Z,13.77
2023-08-12T18:28:11.250Z,14.50
2023-08-12T18:31:14.457Z,17.60
2023-08-12T18:34:19.084Z,21.27
2023-08-12T18:37:22.207Z,22.03
2023-08-12T18:40:25.259Z,23.30
2023-08-12T18:43:28.365Z,27.30
2023-08-12T18:46:31.431Z,25.90
2023-08-12T18:49:35.993Z,25.67
2023-08-12T18:52:40.045Z,23.77
2023-08-12T18:55:43.133Z,22.67
2023-08-12T18:58:46.374Z,21.10
2023-08-12T19:01:49.655Z,18.88
2023-08-12T19:04:54.090Z,17.25
2023-08-12T19:07:57.229Z,15.60
2023-08-12T19:11:00.980Z,14.90
2023-08-12T19:14:04.257Z,14.40
2023-08-12T19:17:07.415Z,12.60
2023-08-12T19:20:14.001Z,12.10
2023-08-12T19:23:17.142Z,12.13
2023-08-12T19:26:20.929Z,11.88
2023-08-12T19:29:24.026Z,11.50
2023-08-12T19:32:27.085Z,11.23
2023-08-12T19:35:31.758Z,11.45
2023-08-12T19:38:35.124Z,10.23
2023-08-12T19:41:38.251Z,9.10
2023-08-12T19:44:41.356Z,9.60
2023-08-12T19:47:46.062Z,10.10
2023-08-12T19:50:54.198Z,9.47
2023-08-12T19:53:57.388Z,8.90
2023-08-12T19:57:00.465Z,9.23
2023-08-12T20:00:05.333Z,8.80
2023-08-12T20:03:08.785Z,8.60
2023-08-12T20:06:13.732Z,7.90
2023-08-12T20:09:16.762Z,7.50
2023-08-12T20:12:19.849Z,6.60
2023-08-12T20:15:22.944Z,6.20
2023-08-12T20:18:26.330Z,7.20
2023-08-12T20:21:31.050Z,6.97
2023-08-12T20:24:34.477Z,6.25
2023-08-12T20:27:37.605Z,5.70
2023-08-12T20:30:40.710Z,4.47
2023-08-12T20:33:43.835Z,4.00
2023-08-12T20:36:48.504Z,3.67
2023-08-12T20:39:51.700Z,3.80
2023-08-12T20:42:54.971Z,3.70
2023-08-12T20:45:58.222Z,3.75
2023-08-12T20:49:01.271Z,4.10
2023-08-12T20:52:06.345Z,3.80
2023-08-12T20:55:10.457Z,4.20
2023-08-12T20:58:13.627Z,4.95
2023-08-12T21:01:16.839Z,4.60
2023-08-12T21:04:19.968Z,4.45
2023-08-12T21:07:24.539Z,5.10
2023-08-12T21:10:27.800Z,4.30
2023-08-12T21:13:30.875Z,4.90
2023-08-12T21:16:34.338Z,4.60
2023-08-12T21:19:37.432Z,3.85
2023-08-12T21:22:48.782Z,4.93
2023-08-12T21:25:52.025Z,4.47
2023-08-12T21:28:55.224Z,4.50
2023-08-12T21:31:58.455Z,4.15
2023-08-12T21:35:02.389Z,4.00
2023-08-12T21:38:07.009Z,4.22
2023-08-12T21:41:10.120Z,4.00
2023-08-12T21:44:13.208Z,3.80
2023-08-12T21:47:16.355Z,3.80
2023-08-12T21:50:19.810Z,3.40
2023-08-12T21:53:24.401Z,4.00
2023-08-12T21:56:27.629Z,4.10
2023-08-12T21:59:30.917Z,3.40
2023-08-12T22:02:34.138Z,3.42
2023-08-12T22:05:37.339Z,3.70
2023-08-12T22:08:42.112Z,3.70
2023-08-12T22:11:45.253Z,4.40
2023-08-12T22:14:48.336Z,4.30
2023-08-12T22:17:51.492Z,4.30
2023-08-12T22:20:55.451Z,5.45
2023-08-12T22:23:59.908Z,6.20
2023-08-12T22:27:03.128Z,4.60
2023-08-12T22:30:07.406Z,4.50
2023-08-12T22:33:10.639Z,4.40
2023-08-12T22:36:13.911Z,4.30
2023-08-12T22:39:18.452Z,4.20
2023-08-12T22:42:21.579Z,5.03
2023-08-12T22:45:24.695Z,5.78
2023-08-12T22:48:27.931Z,4.75
2023-08-12T22:51:31.095Z,4.30
2023-08-12T22:54:35.522Z,3.90
2023-08-12T22:57:38.697Z,3.40
2023-08-12T23:00:41.781Z,4.10
2023-08-12T23:03:44.980Z,4.15
2023-08-12T23:06:48.115Z,5.10
2023-08-12T23:09:53.709Z,7.35
2023-08-12T23:12:56.848Z,7.50
2023-08-12T23:15:59.959Z,7.10
2023-08-12T23:19:03.372Z,6.40
2023-08-12T23:22:06.710Z,5.00
2023-08-12T23:25:12.022Z,4.70
2023-08-12T23:28:15.156Z,5.40
2023-08-12T23:31:18.879Z,6.57
2023-08-12T23:34:22.132Z,7.10
2023-08-12T23:37:25.476Z,6.23
2023-08-12T23:40:30.658Z,5.03
2023-08-12T23:43:33.812Z,6.65
2023-08-12T23:46:36.914Z,5.07
2023-08-12T23:49:40.060Z,4.40
2023-08-12T23:52:43.224Z,3.80
2023-08-12T23:55:47.683Z,3.75
2023-08-12T23:58:50.765Z,3.78
